sensor_id;sensor_type;location;lat;lon;timestamp;P1;P2;P0
56360;PMS7003;42611;51.132;13.588;2022-09-21T00:09:01;5.4;4.5;
56360;PMS7003;42611;51.132;13.588;2022-09-21T00:14:03;4.0;3.3;
56360;PMS7003;42611;51.132;13.588;2022-09-21T00:19:01;3.9;3.4;
56360;PMS7003;42611;51.132;13.588;2022-09-21T00:24:01;4.2;3.8;
56360;PMS7003;42611;51.132;13.588;2022-09-21T00:29:02;4.4;4.4;
56360;PMS7003;42611;51.132;13.588;2022-09-21T00:34:01;5.3;5.0;
56360;PMS7003;42611;51.132;13.588;2022-09-21T00:39:01;6.3;5.8;
56360;PMS7003;42611;51.132;13.588;2022-09-21T00:44:23;6.4;5.9;
56360;PMS7003;42611;51.132;13.588;2022-09-21T00:49:01;6.0;5.6;
56360;PMS7003;42611;51.132;13.588;2022-09-21T00:59:01;5.6;5.3;
56360;PMS7003;42611;51.132;13.588;2022-09-21T01:04:01;6.0;5.6;
56360;PMS7003;42611;51.132;13.588;2022-09-21T01:09:01;6.1;5.7;
56360;PMS7003;42611;51.132;13.588;2022-09-21T01:14:07;5.9;5.5;
56360;PMS7003;42611;51.132;13.588;2022-09-21T01:21:14;5.8;5.4;
56360;PMS7003;42611;51.132;13.588;2022-09-21T01:24:40;5.5;5.3;
56360;PMS7003;42611;51.132;13.588;2022-09-21T01:29:36;5.2;5.1;
56360;PMS7003;42611;51.132;13.588;2022-09-21T01:34:03;4.8;4.6;
56360;PMS7003;42611;51.132;13.588;2022-09-21T01:39:04;5.1;4.8;
56360;PMS7003;42611;51.132;13.588;2022-09-21T01:44:06;5.4;4.8;
56360;PMS7003;42611;51.132;13.588;2022-09-21T01:49:03;5.2;4.6;
56360;PMS7003;42611;51.132;13.588;2022-09-21T01:54:03;4.9;4.4;
56360;PMS7003;42611;51.132;13.588;2022-09-21T01:59:05;4.8;4.4;
56360;PMS7003;42611;51.132;13.588;2022-09-21T02:04:03;4.9;4.7;
56360;PMS7003;42611;51.132;13.588;2022-09-21T02:09:01;5.0;4.7;
56360;PMS7003;42611;51.132;13.588;2022-09-21T02:14:01;5.1;4.8;
56360;PMS7003;42611;51.132;13.588;2022-09-21T02:19:06;5.5;5.0;
56360;PMS7003;42611;51.132;13.588;2022-09-21T02:29:37;4.8;3.9;
56360;PMS7003;42611;51.132;13.588;2022-09-21T02:35:12;4.7;4.1;
56360;PMS7003;42611;51.132;13.588;2022-09-21T02:39:04;5.0;4.3;
56360;PMS7003;42611;51.132;13.588;2022-09-21T02:44:03;4.8;4.4;
56360;PMS7003;42611;51.132;13.588;2022-09-21T02:54:02;5.6;5.2;
56360;PMS7003;42611;51.132;13.588;2022-09-21T02:59:02;5.5;4.8;
56360;PMS7003;42611;51.132;13.588;2022-09-21T03:04:01;5.6;4.9;
56360;PMS7003;42611;51.132;13.588;2022-09-21T03:09:01;6.0;5.3;
56360;PMS7003;42611;51.132;13.588;2022-09-21T03:14:02;6.5;5.4;
56360;PMS7003;42611;51.132;13.588;2022-09-21T03:19:01;6.7;5.8;
56360;PMS7003;42611;51.132;13.588;2022-09-21T03:24:01;7.5;6.6;
56360;PMS7003;42611;51.132;13.588;2022-09-21T03:29:02;7.8;6.9;
56360;PMS7003;42611;51.132;13.588;2022-09-21T03:34:02;7.0;6.2;
56360;PMS7003;42611;51.132;13.588;2022-09-21T03:44:01;6.6;6.4;
56360;PMS7003;42611;51.132;13.588;2022-09-21T03:54:01;6.5;6.5;
56360;PMS7003;42611;51.132;13.588;2022-09-21T03:59:01;8.9;8.3;
56360;PMS7003;42611;51.132;13.588;2022-09-21T04:04:01;9.2;8.6;
56360;PMS7003;42611;51.132;13.588;2022-09-21T04:09:01;9.4;8.8;
56360;PMS7003;42611;51.132;13.588;2022-09-21T04:14:01;9.2;8.3;
56360;PMS7003;42611;51.132;13.588;2022-09-21T04:19:01;9.4;8.5;
56360;PMS7003;42611;51.132;13.588;2022-09-21T04:24:02;9.2;8.6;
56360;PMS7003;42611;51.132;13.588;2022-09-21T04:29:02;11.0;10.1;
56360;PMS7003;42611;51.132;13.588;2022-09-21T04:34:02;12.8;11.7;
56360;PMS7003;42611;51.132;13.588;2022-09-21T04:39:02;16.4;15.2;
56360;PMS7003;42611;51.132;13.588;2022-09-21T04:44:02;19.0;17.4;
56360;PMS7003;42611;51.132;13.588;2022-09-21T04:49:01;19.1;17.4;
56360;PMS7003;42611;51.132;13.588;2022-09-21T04:54:02;19.4;17.3;
56360;PMS7003;42611;51.132;13.588;2022-09-21T04:59:01;19.3;17.3;
56360;PMS7003;42611;51.132;13.588;2022-09-21T05:04:01;17.2;15.4;
56360;PMS7003;42611;51.132;13.588;2022-09-21T05:09:02;15.8;14.6;
56360;PMS7003;42611;51.132;13.588;2022-09-21T05:14:02;17.2;16.0;
56360;PMS7003;42611;51.132;13.588;2022-09-21T05:19:01;17.9;16.4;
56360;PMS7003;42611;51.132;13.588;2022-09-21T05:24:01;18.1;16.2;
56360;PMS7003;42611;51.132;13.588;2022-09-21T05:29:01;18.5;16.8;
56360;PMS7003;42611;51.132;13.588;2022-09-21T05:34:13;19.6;17.6;
56360;PMS7003;42611;51.132;13.588;2022-09-21T05:39:01;18.8;17.0;
56360;PMS7003;42611;51.132;13.588;2022-09-21T05:44:02;19.2;17.8;
56360;PMS7003;42611;51.132;13.588;2022-09-21T05:49:02;19.3;17.9;
56360;PMS7003;42611;51.132;13.588;2022-09-21T05:54:20;18.8;17.3;
56360;PMS7003;42611;51.132;13.588;2022-09-21T06:00:17;18.7;17.4;
56360;PMS7003;42611;51.132;13.588;2022-09-21T06:04:02;18.8;17.6;
56360;PMS7003;42611;51.132;13.588;2022-09-21T06:09:02;17.5;16.6;
56360;PMS7003;42611;51.132;13.588;2022-09-21T06:14:01;18.3;17.3;
56360;PMS7003;42611;51.132;13.588;2022-09-21T06:19:01;18.8;17.9;
56360;PMS7003;42611;51.132;13.588;2022-09-21T06:24:02;17.6;16.8;
56360;PMS7003;42611;51.132;13.588;2022-09-21T06:30:02;18.5;17.8;
56360;PMS7003;42611;51.132;13.588;2022-09-21T06:40:02;17.8;17.2;
56360;PMS7003;42611;51.132;13.588;2022-09-21T06:45:02;18.6;17.5;
56360;PMS7003;42611;51.132;13.588;2022-09-21T06:50:02;20.3;18.5;
56360;PMS7003;42611;51.132;13.588;2022-09-21T06:55:02;19.8;17.8;
56360;PMS7003;42611;51.132;13.588;2022-09-21T07:00:02;20.8;19.0;
56360;PMS7003;42611;51.132;13.588;2022-09-21T07:05:01;21.7;20.0;
56360;PMS7003;42611;51.132;13.588;2022-09-21T07:35:03;23.2;20.2;
56360;PMS7003;42611;51.132;13.588;2022-09-21T07:40:02;18.8;16.5;
56360;PMS7003;42611;51.132;13.588;2022-09-21T07:45:06;18.2;16.7;
56360;PMS7003;42611;51.132;13.588;2022-09-21T07:51:04;19.2;17.5;
56360;PMS7003;42611;51.132;13.588;2022-09-21T07:56:04;17.9;16.6;
56360;PMS7003;42611;51.132;13.588;2022-09-21T08:01:05;16.0;15.0;
56360;PMS7003;42611;51.132;13.588;2022-09-21T08:06:02;15.4;14.7;
56360;PMS7003;42611;51.132;13.588;2022-09-21T08:11:04;14.6;13.6;
56360;PMS7003;42611;51.132;13.588;2022-09-21T08:16:03;12.2;11.6;
56360;PMS7003;42611;51.132;13.588;2022-09-21T08:21:02;11.6;11.0;
56360;PMS7003;42611;51.132;13.588;2022-09-21T08:26:02;11.8;10.9;
56360;PMS7003;42611;51.132;13.588;2022-09-21T08:31:05;11.5;10.6;
56360;PMS7003;42611;51.132;13.588;2022-09-21T08:36:02;10.3;9.8;
56360;PMS7003;42611;51.132;13.588;2022-09-21T08:41:08;10.4;9.9;
56360;PMS7003;42611;51.132;13.588;2022-09-21T08:46:06;10.7;9.9;
56360;PMS7003;42611;51.132;13.588;2022-09-21T08:51:03;9.8;9.3;
56360;PMS7003;42611;51.132;13.588;2022-09-21T09:06:08;9.9;9.2;
56360;PMS7003;42611;51.132;13.588;2022-09-21T09:11:29;8.8;8.4;
56360;PMS7003;42611;51.132;13.588;2022-09-21T09:21:04;8.4;8.0;
56360;PMS7003;42611;51.132;13.588;2022-09-21T09:26:19;7.8;7.6;
56360;PMS7003;42611;51.132;13.588;2022-09-21T09:31:16;7.0;6.7;
56360;PMS7003;42611;51.132;13.588;2022-09-21T09:36:04;6.7;6.5;
56360;PMS7003;42611;51.132;13.588;2022-09-21T09:41:55;6.8;6.5;
56360;PMS7003;42611;51.132;13.588;2022-09-21T09:46:17;6.3;6.1;
56360;PMS7003;42611;51.132;13.588;2022-09-21T09:51:02;6.4;6.1;
56360;PMS7003;42611;51.132;13.588;2022-09-21T09:56:01;7.0;6.2;
56360;PMS7003;42611;51.132;13.588;2022-09-21T10:01:01;7.4;6.3;
56360;PMS7003;42611;51.132;13.588;2022-09-21T10:06:02;7.1;5.6;
56360;PMS7003;42611;51.132;13.588;2022-09-21T10:11:02;7.3;6.1;
56360;PMS7003;42611;51.132;13.588;2022-09-21T10:16:10;6.8;5.6;
56360;PMS7003;42611;51.132;13.588;2022-09-21T10:21:02;6.2;5.5;
56360;PMS7003;42611;51.132;13.588;2022-09-21T10:27:11;5.4;5.0;
56360;PMS7003;42611;51.132;13.588;2022-09-21T10:32:03;4.7;4.6;
56360;PMS7003;42611;51.132;13.588;2022-09-21T10:37:19;3.9;3.8;
56360;PMS7003;42611;51.132;13.588;2022-09-21T10:42:03;4.5;4.2;
56360;PMS7003;42611;51.132;13.588;2022-09-21T10:47:03;4.3;4.0;
56360;PMS7003;42611;51.132;13.588;2022-09-21T10:52:01;4.1;3.8;
56360;PMS7003;42611;51.132;13.588;2022-09-21T10:57:02;4.2;3.9;
56360;PMS7003;42611;51.132;13.588;2022-09-21T11:02:21;3.8;3.5;
56360;PMS7003;42611;51.132;13.588;2022-09-21T11:07:12;3.4;3.4;
56360;PMS7003;42611;51.132;13.588;2022-09-21T11:17:07;3.6;3.6;
56360;PMS7003;42611;51.132;13.588;2022-09-21T11:22:36;3.7;3.6;
56360;PMS7003;42611;51.132;13.588;2022-09-21T11:27:30;4.1;4.0;
56360;PMS7003;42611;51.132;13.588;2022-09-21T11:32:26;6.1;5.9;
56360;PMS7003;42611;51.132;13.588;2022-09-21T11:48:26;6.1;5.8;
56360;PMS7003;42611;51.132;13.588;2022-09-21T11:52:14;5.7;5.4;
56360;PMS7003;42611;51.132;13.588;2022-09-21T11:57:03;3.2;3.1;
56360;PMS7003;42611;51.132;13.588;2022-09-21T12:03:05;2.8;2.8;
56360;PMS7003;42611;51.132;13.588;2022-09-21T12:08:12;2.0;2.0;
56360;PMS7003;42611;51.132;13.588;2022-09-21T12:12:04;1.9;1.8;
56360;PMS7003;42611;51.132;13.588;2022-09-21T12:17:12;2.2;1.9;
56360;PMS7003;42611;51.132;13.588;2022-09-21T12:27:12;2.1;1.7;
56360;PMS7003;42611;51.132;13.588;2022-09-21T12:37:11;2.2;1.9;
56360;PMS7003;42611;51.132;13.588;2022-09-21T12:42:03;1.8;1.6;
56360;PMS7003;42611;51.132;13.588;2022-09-21T12:52:02;1.9;1.7;
56360;PMS7003;42611;51.132;13.588;2022-09-21T12:57:45;2.1;1.9;
56360;PMS7003;42611;51.132;13.588;2022-09-21T13:02:04;2.3;1.9;
56360;PMS7003;42611;51.132;13.588;2022-09-21T13:08:09;2.1;1.9;
56360;PMS7003;42611;51.132;13.588;2022-09-21T13:12:06;2.2;1.8;
56360;PMS7003;42611;51.132;13.588;2022-09-21T13:17:02;2.6;2.0;
56360;PMS7003;42611;51.132;13.588;2022-09-21T13:22:25;2.4;1.8;
56360;PMS7003;42611;51.132;13.588;2022-09-21T13:27:02;2.0;1.6;
56360;PMS7003;42611;51.132;13.588;2022-09-21T13:32:20;1.8;1.4;
56360;PMS7003;42611;51.132;13.588;2022-09-21T13:37:24;1.5;1.3;
56360;PMS7003;42611;51.132;13.588;2022-09-21T13:42:43;0.9;0.9;
56360;PMS7003;42611;51.132;13.588;2022-09-21T13:47:01;0.7;0.7;
56360;PMS7003;42611;51.132;13.588;2022-09-21T13:52:02;0.4;0.4;
56360;PMS7003;42611;51.132;13.588;2022-09-21T13:57:17;0.8;0.8;
56360;PMS7003;42611;51.132;13.588;2022-09-21T14:02:02;1.2;1.0;
56360;PMS7003;42611;51.132;13.588;2022-09-21T14:12:03;1.6;1.2;
56360;PMS7003;42611;51.132;13.588;2022-09-21T14:17:02;2.0;1.4;
56360;PMS7003;42611;51.132;13.588;2022-09-21T14:22:34;2.2;1.6;
56360;PMS7003;42611;51.132;13.588;2022-09-21T14:27:36;2.0;1.5;
56360;PMS7003;42611;51.132;13.588;2022-09-21T14:42:03;2.0;1.6;
56360;PMS7003;42611;51.132;13.588;2022-09-21T14:52:43;1.4;1.2;
56360;PMS7003;42611;51.132;13.588;2022-09-21T14:57:23;1.8;1.6;
56360;PMS7003;42611;51.132;13.588;2022-09-21T15:07:06;1.7;1.7;
56360;PMS7003;42611;51.132;13.588;2022-09-21T15:17:16;2.8;2.6;
56360;PMS7003;42611;51.132;13.588;2022-09-21T15:22:18;2.6;2.4;
56360;PMS7003;42611;51.132;13.588;2022-09-21T15:27:08;2.4;2.2;
56360;PMS7003;42611;51.132;13.588;2022-09-21T15:32:02;2.5;2.2;
56360;PMS7003;42611;51.132;13.588;2022-09-21T15:37:05;2.9;2.6;
56360;PMS7003;42611;51.132;13.588;2022-09-21T15:42:13;1.8;1.8;
56360;PMS7003;42611;51.132;13.588;2022-09-21T15:57:31;1.7;1.5;
56360;PMS7003;42611;51.132;13.588;2022-09-21T16:02:09;1.5;1.3;
56360;PMS7003;42611;51.132;13.588;2022-09-21T16:07:03;2.5;2.2;
56360;PMS7003;42611;51.132;13.588;2022-09-21T16:17:18;2.9;2.8;
56360;PMS7003;42611;51.132;13.588;2022-09-21T16:22:02;3.1;3.1;
56360;PMS7003;42611;51.132;13.588;2022-09-21T16:32:20;2.5;2.5;
56360;PMS7003;42611;51.132;13.588;2022-09-21T16:37:17;2.7;2.7;
56360;PMS7003;42611;51.132;13.588;2022-09-21T16:42:03;2.6;2.6;
56360;PMS7003;42611;51.132;13.588;2022-09-21T16:47:02;2.8;2.6;
56360;PMS7003;42611;51.132;13.588;2022-09-21T16:52:02;3.4;3.2;
56360;PMS7003;42611;51.132;13.588;2022-09-21T16:57:02;3.8;3.6;
56360;PMS7003;42611;51.132;13.588;2022-09-21T17:02:02;3.9;3.6;
56360;PMS7003;42611;51.132;13.588;2022-09-21T17:07:03;4.3;4.0;
56360;PMS7003;42611;51.132;13.588;2022-09-21T17:12:05;4.2;4.2;
56360;PMS7003;42611;51.132;13.588;2022-09-21T17:17:02;3.9;3.8;
56360;PMS7003;42611;51.132;13.588;2022-09-21T17:27:02;4.6;4.6;
56360;PMS7003;42611;51.132;13.588;2022-09-21T17:32:02;5.3;5.2;
56360;PMS7003;42611;51.132;13.588;2022-09-21T17:37:01;7.4;7.2;
56360;PMS7003;42611;51.132;13.588;2022-09-21T17:42:02;8.1;7.9;
56360;PMS7003;42611;51.132;13.588;2022-09-21T17:47:18;9.4;8.7;
56360;PMS7003;42611;51.132;13.588;2022-09-21T17:52:02;9.7;9.0;
56360;PMS7003;42611;51.132;13.588;2022-09-21T17:57:06;9.9;9.2;
56360;PMS7003;42611;51.132;13.588;2022-09-21T18:02:05;8.9;8.0;
56360;PMS7003;42611;51.132;13.588;2022-09-21T18:07:01;8.8;7.9;
56360;PMS7003;42611;51.132;13.588;2022-09-21T18:12:10;7.6;7.1;
56360;PMS7003;42611;51.132;13.588;2022-09-21T18:17:56;7.0;6.4;
56360;PMS7003;42611;51.132;13.588;2022-09-21T18:22:05;6.7;6.1;
56360;PMS7003;42611;51.132;13.588;2022-09-21T18:27:02;7.1;6.7;
56360;PMS7003;42611;51.132;13.588;2022-09-21T18:33:26;8.3;7.9;
56360;PMS7003;42611;51.132;13.588;2022-09-21T18:37:07;10.8;9.9;
56360;PMS7003;42611;51.132;13.588;2022-09-21T18:47:17;12.5;11.4;
56360;PMS7003;42611;51.132;13.588;2022-09-21T18:52:07;13.1;12.2;
56360;PMS7003;42611;51.132;13.588;2022-09-21T18:57:04;13.4;12.4;
56360;PMS7003;42611;51.132;13.588;2022-09-21T19:02:08;12.8;12.4;
56360;PMS7003;42611;51.132;13.588;2022-09-21T19:07:03;14.3;14.0;
56360;PMS7003;42611;51.132;13.588;2022-09-21T19:12:19;16.1;15.6;
56360;PMS7003;42611;51.132;13.588;2022-09-21T19:17:13;16.7;16.3;
56360;PMS7003;42611;51.132;13.588;2022-09-21T19:22:28;17.8;16.9;
56360;PMS7003;42611;51.132;13.588;2022-09-21T19:27:25;17.4;16.5;
56360;PMS7003;42611;51.132;13.588;2022-09-21T19:32:03;17.0;15.8;
56360;PMS7003;42611;51.132;13.588;2022-09-21T19:37:08;14.4;13.6;
56360;PMS7003;42611;51.132;13.588;2022-09-21T19:42:05;12.4;11.3;
56360;PMS7003;42611;51.132;13.588;2022-09-21T19:47:04;10.6;9.9;
56360;PMS7003;42611;51.132;13.588;2022-09-21T19:52:02;9.4;8.9;
56360;PMS7003;42611;51.132;13.588;2022-09-21T19:57:04;8.5;8.2;
56360;PMS7003;42611;51.132;13.588;2022-09-21T20:02:02;8.2;7.8;
56360;PMS7003;42611;51.132;13.588;2022-09-21T20:07:05;8.4;8.2;
56360;PMS7003;42611;51.132;13.588;2022-09-21T20:17:03;9.6;9.3;
56360;PMS7003;42611;51.132;13.588;2022-09-21T20:22:22;8.7;8.4;
56360;PMS7003;42611;51.132;13.588;2022-09-21T20:27:15;9.6;9.2;
56360;PMS7003;42611;51.132;13.588;2022-09-21T20:32:01;11.4;10.9;
56360;PMS7003;42611;51.132;13.588;2022-09-21T20:37:05;13.0;12.5;
56360;PMS7003;42611;51.132;13.588;2022-09-21T20:42:01;13.3;12.7;
56360;PMS7003;42611;51.132;13.588;2022-09-21T20:47:01;15.7;15.2;
56360;PMS7003;42611;51.132;13.588;2022-09-21T20:52:01;15.2;14.6;
56360;PMS7003;42611;51.132;13.588;2022-09-21T20:57:01;13.9;13.4;
56360;PMS7003;42611;51.132;13.588;2022-09-21T21:03:02;12.6;12.3;
56360;PMS7003;42611;51.132;13.588;2022-09-21T21:08:01;11.8;11.5;
56360;PMS7003;42611;51.132;13.588;2022-09-21T21:13:02;10.5;10.2;
56360;PMS7003;42611;51.132;13.588;2022-09-21T21:18:01;10.0;9.7;
56360;PMS7003;42611;51.132;13.588;2022-09-21T21:23:09;9.6;9.3;
56360;PMS7003;42611;51.132;13.588;2022-09-21T21:28:02;9.3;9.1;
56360;PMS7003;42611;51.132;13.588;2022-09-21T21:33:01;8.4;8.4;
56360;PMS7003;42611;51.132;13.588;2022-09-21T21:38:01;8.3;8.0;
56360;PMS7003;42611;51.132;13.588;2022-09-21T21:48:01;8.1;7.9;
56360;PMS7003;42611;51.132;13.588;2022-09-21T21:53:01;8.3;7.9;
56360;PMS7003;42611;51.132;13.588;2022-09-21T21:58:01;9.0;8.1;
56360;PMS7003;42611;51.132;13.588;2022-09-21T22:08:02;9.1;8.0;
56360;PMS7003;42611;51.132;13.588;2022-09-21T22:13:02;9.0;7.9;
56360;PMS7003;42611;51.132;13.588;2022-09-21T22:18:01;8.9;7.8;
56360;PMS7003;42611;51.132;13.588;2022-09-21T22:23:01;8.4;7.8;
56360;PMS7003;42611;51.132;13.588;2022-09-21T22:28:01;8.6;8.2;
56360;PMS7003;42611;51.132;13.588;2022-09-21T22:38:01;8.8;8.5;
56360;PMS7003;42611;51.132;13.588;2022-09-21T22:43:01;9.1;8.5;
56360;PMS7003;42611;51.132;13.588;2022-09-21T22:48:02;9.4;8.4;
56360;PMS7003;42611;51.132;13.588;2022-09-21T22:53:01;9.0;8.0;
56360;PMS7003;42611;51.132;13.588;2022-09-21T22:58:01;9.2;8.2;
56360;PMS7003;42611;51.132;13.588;2022-09-21T23:03:01;10.4;9.0;
56360;PMS7003;42611;51.132;13.588;2022-09-21T23:08:01;10.7;9.6;
56360;PMS7003;42611;51.132;13.588;2022-09-21T23:13:02;11.5;10.8;
56360;PMS7003;42611;51.132;13.588;2022-09-21T23:18:02;12.4;11.7;
56360;PMS7003;42611;51.132;13.588;2022-09-21T23:23:01;12.6;12.0;
56360;PMS7003;42611;51.132;13.588;2022-09-21T23:33:01;12.8;12.3;
56360;PMS7003;42611;51.132;13.588;2022-09-21T23:38:02;13.8;13.0;
56360;PMS7003;42611;51.132;13.588;2022-09-21T23:43:01;14.1;13.1;
56360;PMS7003;42611;51.132;13.588;2022-09-21T23:48:01;14.7;13.6;
56360;PMS7003;42611;51.132;13.588;2022-09-21T23:53:01;14.3;13.7;
56360;PMS7003;42611;51.132;13.588;2022-09-21T23:58:01;13.4;12.8;
